Time;durP1;ratioP1;P1;durP2;ratioP2;P2;SDS_P1;SDS_P2;PMS_P1;PMS_P2;Temp;Humidity;BMP_temperature;BMP_pressure;BME280_temperature;BME280_humidity;BME280_pressure;Samples;Min_cycle;Max_cycle;Signal;HPM_P1;HPM_P2
2022/11/08 00:02:28;;;;;;;5.13;1.20;;;15.60;99.90;;;;;;5073311;28;20408;-84
2022/11/08 00:04:54;;;;;;;5.10;1.20;;;15.60;99.90;;;;;;5054593;28;20158;-83
2022/11/08 00:15:51;;;;;;;4.55;1.45;;;15.60;99.90;;;;;;5072903;28;20503;-83
2022/11/08 00:18:17;;;;;;;6.57;1.30;;;15.60;99.90;;;;;;5054799;28;20048;-84
2022/11/08 00:20:44;;;;;;;3.77;1.10;;;15.50;99.90;;;;;;5073210;28;20031;-82
2022/11/08 00:23:10;;;;;;;;;;;15.50;99.90;;;;;;5074426;28;20358;-83
2022/11/08 00:25:37;;;;;;;3.72;1.20;;;15.50;99.90;;;;;;5072620;28;19978;-83
2022/11/08 00:28:03;;;;;;;2.83;1.00;;;15.50;99.90;;;;;;5072726;28;20357;-83
2022/11/08 00:30:29;;;;;;;5.75;1.20;;;15.50;99.90;;;;;;5073108;28;20493;-84
2022/11/08 00:32:55;;;;;;;4.20;1.10;;;15.40;99.90;;;;;;5072590;28;20017;-82
2022/11/08 00:35:22;;;;;;;9.10;1.20;;;15.40;99.90;;;;;;5072469;28;20780;-83
2022/11/08 00:37:48;;;;;;;6.60;1.10;;;15.40;99.90;;;;;;5054641;28;20047;-83
2022/11/08 00:40:16;;;;;;;6.07;1.33;;;15.30;99.90;;;;;;5054416;28;20428;-81
2022/11/08 00:42:42;;;;;;;5.65;1.25;;;15.40;99.90;;;;;;5072322;28;20023;-83
2022/11/08 00:45:08;;;;;;;6.83;1.10;;;15.30;99.90;;;;;;5072371;28;20036;-83
2022/11/08 00:47:34;;;;;;;2.55;0.98;;;15.30;99.90;;;;;;5072287;28;20104;-83
2022/11/08 00:50:02;;;;;;;3.10;0.90;;;15.30;99.90;;;;;;5072257;28;20504;-84
2022/11/08 00:52:28;;;;;;;5.40;1.05;;;15.40;99.90;;;;;;5053903;28;20094;-83
2022/11/08 00:54:54;;;;;;;3.63;1.03;;;15.30;99.90;;;;;;5072154;28;20452;-84
2022/11/08 00:57:20;;;;;;;5.80;1.20;;;15.30;99.90;;;;;;5053962;28;20028;-83
2022/11/08 00:59:50;;;;;;;5.97;1.10;;;15.30;99.90;;;;;;5071868;28;20118;-83
2022/11/08 01:02:16;;;;;;;6.25;1.30;;;15.30;99.90;;;;;;5071856;28;20051;-83
2022/11/08 01:04:42;;;;;;;3.88;0.90;;;15.30;99.90;;;;;;5054278;28;20453;-84
2022/11/08 01:07:08;;;;;;;4.13;1.17;;;15.30;99.90;;;;;;5072242;28;20035;-83
2022/11/08 01:09:46;;;;;;;3.33;1.00;;;15.20;99.90;;;;;;5071748;28;20263;-83
2022/11/08 01:12:12;;;;;;;3.90;1.00;;;15.20;99.90;;;;;;5071847;28;20065;-84
2022/11/08 01:14:38;;;;;;;3.37;1.00;;;15.30;99.90;;;;;;5072038;28;20055;-84
2022/11/08 01:17:04;;;;;;;7.37;1.37;;;15.30;99.90;;;;;;5071740;28;20052;-83
2022/11/08 01:19:30;;;;;;;4.70;1.13;;;15.20;99.90;;;;;;5071452;28;20052;-83
2022/11/08 01:21:56;;;;;;;5.53;1.30;;;15.20;99.90;;;;;;5071351;28;20491;-83
2022/11/08 01:24:23;;;;;;;4.60;1.10;;;15.20;99.90;;;;;;5071788;28;20020;-84
2022/11/08 01:26:49;;;;;;;;;;;15.20;99.90;;;;;;5053697;28;20025;-83
2022/11/08 01:29:15;;;;;;;3.75;0.98;;;15.20;99.90;;;;;;5071763;28;19967;-83
2022/11/08 01:31:41;;;;;;;5.05;1.17;;;15.20;99.90;;;;;;5071262;28;20034;-84
2022/11/08 01:34:07;;;;;;;6.65;1.50;;;15.20;99.90;;;;;;5071264;28;20024;-82
2022/11/08 01:36:33;;;;;;;5.23;1.30;;;15.10;99.90;;;;;;5071279;28;20028;-82
2022/11/08 01:38:59;;;;;;;2.90;1.00;;;15.10;99.90;;;;;;5071361;28;20408;-82
2022/11/08 01:41:26;;;;;;;5.47;1.30;;;15.10;99.90;;;;;;5071310;28;20100;-84
2022/11/08 01:43:57;;;;;;;12.15;2.85;;;15.10;99.90;;;;;;5071749;28;20080;-83
2022/11/08 01:46:33;;;;;;;3.33;1.00;;;15.10;99.90;;;;;;5071122;28;20190;-83
2022/11/08 01:49:08;;;;;;;5.30;1.00;;;15.00;99.90;;;;;;5071077;28;20021;-84
2022/11/08 01:52:04;;;;;;;4.18;1.35;;;15.00;99.90;;;;;;5071287;28;20032;-82
2022/11/08 01:54:49;;;;;;;3.50;1.10;;;15.00;99.90;;;;;;5071554;28;20077;-83
2022/11/08 01:57:20;;;;;;;4.90;1.17;;;15.10;99.90;;;;;;5071224;28;20375;-84
2022/11/08 01:59:48;;;;;;;6.22;1.40;;;15.10;99.90;;;;;;5071308;28;20074;-82
2022/11/08 02:02:18;;;;;;;3.92;1.02;;;15.10;99.90;;;;;;5071164;28;20053;-83
2022/11/08 02:04:44;;;;;;;3.22;0.88;;;15.10;99.90;;;;;;5052957;28;20038;-82
2022/11/08 02:07:12;;;;;;;3.08;1.02;;;15.10;99.90;;;;;;5053950;28;20174;-84
2022/11/08 02:09:40;;;;;;;6.45;1.35;;;15.20;99.90;;;;;;5071158;28;20082;-84
2022/11/08 02:12:08;;;;;;;4.72;1.17;;;15.10;99.90;;;;;;5071187;28;20086;-83
2022/11/08 02:14:36;;;;;;;5.47;1.20;;;15.20;99.90;;;;;;5052849;28;20124;-83
2022/11/08 02:17:03;;;;;;;3.60;1.15;;;15.20;99.90;;;;;;5071107;28;20066;-83
2022/11/08 02:19:44;;;;;;;4.38;1.20;;;15.10;99.90;;;;;;5052645;28;20090;-83
2022/11/08 02:22:28;;;;;;;4.43;1.20;;;15.10;99.90;;;;;;5071117;28;20419;-83
2022/11/08 02:24:57;;;;;;;9.18;1.40;;;15.10;99.90;;;;;;5052797;28;20036;-82
2022/11/08 02:27:23;;;;;;;4.28;1.20;;;15.10;99.90;;;;;;5070909;28;20101;-84
2022/11/08 02:29:53;;;;;;;3.47;0.93;;;15.10;99.90;;;;;;5070842;28;20547;-83
2022/11/08 02:32:21;;;;;;;8.27;1.17;;;15.10;99.90;;;;;;5072789;28;20035;-83
2022/11/08 02:35:12;;;;;;;5.43;1.35;;;15.10;99.90;;;;;;5074742;28;20360;-84
2022/11/08 02:37:38;;;;;;;5.90;1.02;;;15.10;99.90;;;;;;5075147;28;20025;-82
2022/11/08 02:40:06;;;;;;;5.38;1.10;;;15.00;99.90;;;;;;5074492;28;20021;-83
2022/11/08 02:42:33;;;;;;;7.07;1.23;;;15.00;99.90;;;;;;5056527;28;20119;-82
2022/11/08 02:45:00;;;;;;;3.83;1.25;;;15.00;99.90;;;;;;5074647;28;20074;-83
2022/11/08 02:47:26;;;;;;;;;;;14.90;99.90;;;;;;5056737;28;20028;-84
2022/11/08 02:49:52;;;;;;;9.15;1.10;;;14.90;99.90;;;;;;5074600;28;20405;-84
2022/11/08 02:52:18;;;;;;;8.05;1.48;;;14.90;99.90;;;;;;5074685;28;20029;-84
2022/11/08 02:54:46;;;;;;;3.77;0.90;;;14.90;99.90;;;;;;5074261;28;20028;-82
2022/11/08 02:57:16;;;;;;;4.13;0.90;;;14.90;99.90;;;;;;5074490;28;20027;-83
2022/11/08 02:59:42;;;;;;;3.75;0.90;;;15.00;99.90;;;;;;5055965;28;20361;-83
2022/11/08 03:02:08;;;;;;;4.23;0.80;;;15.00;99.90;;;;;;5073888;28;20059;-84
2022/11/08 03:04:35;;;;;;;5.90;1.13;;;15.00;99.90;;;;;;5055847;28;20338;-83
2022/11/08 03:07:01;;;;;;;;;;;15.00;99.90;;;;;;5055782;28;20040;-82
2022/11/08 03:09:28;;;;;;;3.53;1.05;;;14.90;99.90;;;;;;5073804;28;20010;-83
2022/11/08 03:11:54;;;;;;;;;;;14.90;99.90;;;;;;5074308;28;20111;-82
2022/11/08 03:14:20;;;;;;;6.10;1.08;;;14.90;99.90;;;;;;5074111;28;19905;-81
2022/11/08 03:16:46;;;;;;;6.53;1.10;;;14.90;99.90;;;;;;5052726;28;20393;-82
2022/11/08 03:19:12;;;;;;;2.95;1.05;;;14.80;99.90;;;;;;5039221;28;20052;-83
2022/11/08 03:21:39;;;;;;;8.43;1.43;;;14.80;99.90;;;;;;5055978;28;20089;-80
2022/11/08 03:24:05;;;;;;;4.82;1.30;;;14.70;99.90;;;;;;5073866;28;20259;-79
2022/11/08 03:26:32;;;;;;;6.25;1.20;;;14.70;99.90;;;;;;5066895;28;20048;-83
2022/11/08 03:29:01;;;;;;;3.13;0.93;;;14.70;99.90;;;;;;5066085;28;20087;-82
2022/11/08 03:31:28;;;;;;;3.92;1.38;;;14.70;99.90;;;;;;5066700;28;20203;-82
2022/11/08 03:33:54;;;;;;;3.90;1.10;;;14.70;99.90;;;;;;5073908;28;20028;-82
2022/11/08 03:36:21;;;;;;;3.97;1.10;;;14.70;99.90;;;;;;5074375;28;20013;-84
2022/11/08 03:38:49;;;;;;;6.65;1.25;;;14.60;99.90;;;;;;5073012;28;20036;-83
2022/11/08 03:41:15;;;;;;;9.40;1.23;;;14.60;99.90;;;;;;5054644;28;20028;-84
2022/11/08 03:43:41;;;;;;;6.80;1.40;;;14.60;99.90;;;;;;5071107;28;20035;-83
2022/11/08 03:46:07;;;;;;;5.13;1.17;;;14.60;99.90;;;;;;5054633;28;20041;-82
2022/11/08 03:48:33;;;;;;;5.13;1.20;;;14.50;99.90;;;;;;5072472;28;20028;-79
2022/11/08 03:50:59;;;;;;;4.57;1.10;;;14.50;99.90;;;;;;5072412;28;20086;-83
2022/11/08 03:53:25;;;;;;;7.60;1.50;;;14.40;99.90;;;;;;5072164;28;20097;-82
2022/11/08 03:55:51;;;;;;;4.10;0.97;;;14.50;99.90;;;;;;5053959;28;20036;-84
2022/11/08 03:58:19;;;;;;;5.32;1.10;;;14.60;99.90;;;;;;5072020;28;20027;-79
2022/11/08 04:00:47;;;;;;;5.90;1.02;;;14.60;99.90;;;;;;5053764;28;20484;-82
2022/11/08 04:03:14;;;;;;;4.00;1.00;;;14.60;99.90;;;;;;5072509;28;20045;-83
2022/11/08 04:05:40;;;;;;;7.18;1.10;;;14.60;99.90;;;;;;5053826;28;20059;-83
2022/11/08 04:08:06;;;;;;;5.17;1.20;;;14.60;99.90;;;;;;5073622;28;20081;-83
2022/11/08 04:10:32;;;;;;;4.17;1.10;;;14.60;99.90;;;;;;5054816;28;20024;-82
2022/11/08 04:15:49;;;;;;;5.38;0.80;;;14.70;99.90;;;;;;5072741;28;20055;-82
2022/11/08 04:21:18;;;;;;;6.93;1.13;;;14.80;99.90;;;;;;5072909;28;20558;-82
2022/11/08 04:23:50;;;;;;;3.92;1.08;;;14.70;99.90;;;;;;5054730;28;20025;-82
2022/11/08 04:26:18;;;;;;;3.03;1.13;;;14.60;99.90;;;;;;5073556;28;20488;-81
2022/11/08 04:28:44;;;;;;;5.80;1.00;;;14.60;99.90;;;;;;5073531;28;20032;-82
2022/11/08 04:31:17;;;;;;;5.43;1.10;;;14.50;99.90;;;;;;5073722;28;20028;-81
2022/11/08 04:33:45;;;;;;;6.00;1.20;;;14.50;99.90;;;;;;5073898;28;20065;-83
2022/11/08 04:36:14;;;;;;;4.80;1.10;;;14.50;99.90;;;;;;5073386;28;20153;-82
2022/11/08 04:38:40;;;;;;;5.32;1.17;;;14.50;99.90;;;;;;5055166;28;20028;-82
2022/11/08 04:41:21;;;;;;;4.55;1.05;;;14.50;99.90;;;;;;5073342;28;20461;-83
2022/11/08 04:43:48;;;;;;;6.15;1.08;;;14.50;99.90;;;;;;5072990;28;20036;-83
2022/11/08 04:46:20;;;;;;;5.30;1.30;;;14.40;99.90;;;;;;5073006;28;20029;-82
2022/11/08 04:48:46;;;;;;;5.60;1.00;;;14.40;99.90;;;;;;5073424;28;20031;-83
2022/11/08 04:51:15;;;;;;;5.57;1.20;;;14.40;99.90;;;;;;5072961;28;20086;-83
2022/11/08 04:53:41;;;;;;;6.03;1.00;;;14.40;99.90;;;;;;5072815;28;20028;-83
2022/11/08 04:56:10;;;;;;;3.20;1.00;;;14.40;99.90;;;;;;5054050;28;20025;-83
2022/11/08 04:58:41;;;;;;;3.58;0.98;;;14.40;99.90;;;;;;5072650;28;20020;-83
2022/11/08 05:01:09;;;;;;;4.55;1.25;;;14.40;99.90;;;;;;5071661;28;20052;-82
2022/11/08 05:03:36;;;;;;;5.80;1.20;;;14.30;99.90;;;;;;5072800;28;20055;-84
2022/11/08 05:06:06;;;;;;;2.70;0.80;;;14.30;99.90;;;;;;5072053;28;20048;-82
2022/11/08 05:08:32;;;;;;;5.45;1.00;;;14.30;99.90;;;;;;5072074;28;20030;-82
2022/11/08 05:11:07;;;;;;;4.40;1.20;;;14.20;99.90;;;;;;5072464;28;20469;-82
2022/11/08 05:13:34;;;;;;;5.18;1.40;;;14.20;99.90;;;;;;5072399;28;20110;-83
2022/11/08 05:16:02;;;;;;;3.25;1.00;;;14.20;99.90;;;;;;5037726;28;20536;-82
2022/11/08 05:18:30;;;;;;;5.32;1.05;;;14.20;99.90;;;;;;5073166;28;20090;-82
2022/11/08 05:23:44;;;;;;;4.75;1.23;;;14.20;99.90;;;;;;5058388;28;20051;-82
2022/11/08 05:26:15;;;;;;;6.20;1.33;;;14.30;99.90;;;;;;5073480;28;20111;-83
2022/11/08 05:28:45;;;;;;;5.45;1.20;;;14.20;99.90;;;;;;5073273;28;20035;-81
2022/11/08 05:31:12;;;;;;;5.80;1.30;;;14.20;99.90;;;;;;5073013;28;20028;-82
2022/11/08 05:33:41;;;;;;;5.67;1.40;;;14.30;99.90;;;;;;5073129;28;20037;-82
2022/11/08 05:36:10;;;;;;;6.72;1.20;;;14.30;99.90;;;;;;5073368;28;20263;-78
2022/11/08 05:38:37;;;;;;;5.75;1.30;;;14.30;99.90;;;;;;5070868;28;20541;-81
2022/11/08 05:41:06;;;;;;;6.57;1.20;;;14.20;99.90;;;;;;5073065;28;20353;-83
2022/11/08 05:43:32;;;;;;;5.50;1.20;;;14.30;99.90;;;;;;5054777;28;20377;-82
2022/11/08 05:45:59;;;;;;;4.13;1.40;;;14.30;99.90;;;;;;5072810;28;20037;-83
2022/11/08 05:48:25;;;;;;;5.32;1.05;;;14.20;99.90;;;;;;5056669;28;20529;-83
2022/11/08 05:50:52;;;;;;;5.13;1.27;;;14.30;99.90;;;;;;5074530;28;20384;-84
2022/11/08 05:53:19;;;;;;;5.95;1.27;;;14.30;99.90;;;;;;5074760;28;20430;-83
2022/11/08 05:55:46;;;;;;;2.83;1.05;;;14.30;99.90;;;;;;5072799;28;20025;-79
2022/11/08 05:58:12;;;;;;;2.83;0.80;;;14.40;99.90;;;;;;5069161;28;20108;-77
2022/11/08 06:00:38;;;;;;;3.38;0.98;;;14.40;99.90;;;;;;5070003;28;20040;-80
2022/11/08 06:03:05;;;;;;;5.43;1.30;;;14.70;99.90;;;;;;5067177;28;20036;-79
2022/11/08 06:05:33;;;;;;;3.60;1.27;;;15.10;99.90;;;;;;5054280;28;20125;-79
2022/11/08 06:07:59;;;;;;;9.65;1.15;;;15.60;99.90;;;;;;5076020;28;20490;-79
2022/11/08 06:10:26;;;;;;;6.78;1.23;;;16.10;99.90;;;;;;5058503;28;20024;-82
2022/11/08 06:12:53;;;;;;;5.53;1.42;;;16.60;99.90;;;;;;5058699;28;20032;-78
2022/11/08 06:15:21;;;;;;;5.97;1.25;;;17.00;99.90;;;;;;5076423;28;20047;-76
2022/11/08 06:17:49;;;;;;;6.90;1.02;;;17.40;99.90;;;;;;5076348;28;20456;-80
2022/11/08 06:20:15;;;;;;;9.85;1.42;;;17.70;99.90;;;;;;5076596;28;20059;-81
2022/11/08 06:22:42;;;;;;;2.50;1.10;;;17.90;99.90;;;;;;5076486;28;20020;-84
2022/11/08 06:25:09;;;;;;;4.30;1.35;;;17.90;99.90;;;;;;5058795;28;20037;-83
2022/11/08 06:27:37;;;;;;;5.05;1.50;;;18.10;99.90;;;;;;5076380;28;20025;-82
2022/11/08 06:30:07;;;;;;;10.75;1.30;;;18.20;99.90;;;;;;5075599;28;20040;-81
2022/11/08 06:32:33;;;;;;;4.72;1.30;;;18.20;99.90;;;;;;5075670;28;20124;-83
2022/11/08 06:34:59;;;;;;;7.05;1.20;;;18.50;99.90;;;;;;5057856;28;20036;-80
2022/11/08 06:37:25;;;;;;;4.97;1.50;;;18.70;99.90;;;;;;5074872;28;20397;-82
2022/11/08 06:39:51;;;;;;;6.35;1.73;;;18.90;99.90;;;;;;5074673;28;20302;-81
2022/11/08 06:42:17;;;;;;;5.47;1.30;;;19.10;99.90;;;;;;5074484;28;20439;-80
2022/11/08 06:44:46;;;;;;;8.57;1.48;;;19.20;99.90;;;;;;5074373;28;20025;-81
2022/11/08 06:47:13;;;;;;;2.88;0.98;;;18.90;99.90;;;;;;5074363;28;20032;-81
2022/11/08 06:49:39;;;;;;;4.70;1.17;;;19.20;99.90;;;;;;5074506;28;20357;-80
2022/11/08 06:52:05;;;;;;;6.25;1.55;;;19.10;99.90;;;;;;5056947;28;20028;-84
2022/11/08 06:54:31;;;;;;;4.05;1.30;;;19.40;99.90;;;;;;5055675;28;20025;-82
2022/11/08 06:56:59;;;;;;;7.60;1.40;;;19.50;99.90;;;;;;5073841;28;20027;-81
2022/11/08 06:59:26;;;;;;;3.58;1.30;;;19.70;99.90;;;;;;5056078;28;20020;-79
2022/11/08 07:01:53;;;;;;;5.63;1.40;;;20.40;99.90;;;;;;5055698;28;20129;-83
2022/11/08 07:04:20;;;;;;;5.72;1.35;;;21.00;99.90;;;;;;5074034;28;20036;-80
2022/11/08 07:06:46;;;;;;;4.47;1.23;;;21.50;99.90;;;;;;5073904;28;20033;-81
2022/11/08 07:09:12;;;;;;;7.40;1.30;;;21.80;99.90;;;;;;5074126;28;20440;-81
2022/11/08 07:11:40;;;;;;;10.48;1.70;;;22.20;99.90;;;;;;5074929;28;20067;-81
2022/11/08 07:14:07;;;;;;;4.22;1.27;;;22.10;99.90;;;;;;5073955;28;20164;-80
2022/11/08 07:16:33;;;;;;;5.65;1.33;;;22.40;99.90;;;;;;5042910;28;20035;-75
2022/11/08 07:18:59;;;;;;;7.97;1.50;;;23.00;99.90;;;;;;5041926;28;20036;-81
2022/11/08 07:21:31;;;;;;;3.72;1.35;;;23.10;99.90;;;;;;5074728;28;20028;-86
2022/11/08 07:23:57;;;;;;;5.32;1.40;;;23.50;99.90;;;;;;5074158;28;20026;-81
2022/11/08 07:26:23;;;;;;;5.07;1.52;;;23.60;99.90;;;;;;5074184;28;20041;-79
2022/11/08 07:28:49;;;;;;;3.17;1.20;;;22.80;99.90;;;;;;5074018;28;20104;-80
2022/11/08 07:31:15;;;;;;;5.85;1.45;;;22.10;99.90;;;;;;5074199;28;20028;-80
2022/11/08 07:33:41;;;;;;;10.73;1.65;;;21.70;99.90;;;;;;5075169;28;20029;-81
2022/11/08 07:36:08;;;;;;;5.90;1.35;;;21.30;99.90;;;;;;5074623;28;20086;-80
2022/11/08 07:38:35;;;;;;;6.60;1.60;;;21.10;99.90;;;;;;5074273;28;20162;-80
2022/11/08 07:41:02;;;;;;;4.75;1.40;;;20.90;99.90;;;;;;5073947;28;20411;-82
2022/11/08 07:43:48;;;;;;;6.07;1.70;;;20.90;99.90;;;;;;5074084;28;20036;-83
2022/11/08 07:46:15;;;;;;;4.72;1.52;;;20.70;99.90;;;;;;5056820;28;20072;-80
2022/11/08 07:48:41;;;;;;;7.63;1.63;;;20.70;99.90;;;;;;5073967;28;20064;-80
2022/11/08 07:51:09;;;;;;;4.50;1.10;;;20.60;99.90;;;;;;5056035;28;20389;-80
2022/11/08 07:53:37;;;;;;;7.93;1.45;;;20.70;99.90;;;;;;5055497;28;20444;-79
2022/11/08 07:56:03;;;;;;;5.85;1.70;;;20.80;99.90;;;;;;5073559;28;20111;-80
2022/11/08 07:58:30;;;;;;;5.20;1.48;;;20.80;99.90;;;;;;5073365;28;20078;-80
2022/11/08 08:01:03;;;;;;;9.40;1.52;;;20.80;99.90;;;;;;5073120;28;20064;-80
2022/11/08 08:03:30;;;;;;;6.38;1.60;;;20.60;99.90;;;;;;5073105;28;20468;-80
2022/11/08 08:05:58;;;;;;;4.53;1.63;;;20.80;99.90;;;;;;5073654;28;20048;-81
2022/11/08 08:08:24;;;;;;;5.70;1.30;;;20.90;99.90;;;;;;5055229;28;20165;-78
2022/11/08 08:10:56;;;;;;;5.07;1.70;;;21.10;99.90;;;;;;5055172;28;20025;-81
2022/11/08 08:13:22;;;;;;;7.75;1.65;;;21.40;99.90;;;;;;5073730;28;20021;-81
2022/11/08 08:15:48;;;;;;;5.18;1.30;;;21.50;99.90;;;;;;5055445;28;20330;-80
2022/11/08 08:18:16;;;;;;;4.43;1.70;;;21.60;99.90;;;;;;5073153;28;20017;-80
2022/11/08 08:20:48;;;;;;;10.85;2.97;;;21.60;99.90;;;;;;5073217;28;20047;-81
2022/11/08 08:23:14;;;;;;;8.40;4.18;;;21.70;99.90;;;;;;5073552;28;20468;-80
2022/11/08 08:25:47;;;;;;;9.02;4.60;;;21.80;99.90;;;;;;5078129;28;20020;-80
2022/11/08 08:28:14;;;;;;;13.13;6.78;;;22.00;99.90;;;;;;5073498;28;20024;-79
2022/11/08 08:30:40;;;;;;;14.98;8.77;;;22.10;99.90;;;;;;5072321;28;20127;-79
2022/11/08 08:33:11;;;;;;;17.10;10.27;;;22.20;99.90;;;;;;5072663;28;20024;-80
2022/11/08 08:35:39;;;;;;;17.08;10.73;;;22.20;99.90;;;;;;5072654;28;20028;-80
2022/11/08 08:38:06;;;;;;;11.90;6.65;;;22.10;99.90;;;;;;5054130;28;20055;-79
2022/11/08 08:40:32;;;;;;;17.50;8.13;;;22.00;99.90;;;;;;5072583;28;20028;-80
2022/11/08 08:43:00;;;;;;;13.48;6.00;;;21.90;99.90;;;;;;5072247;28;20048;-79
2022/11/08 08:45:26;;;;;;;13.88;7.75;;;22.00;99.90;;;;;;5072348;28;20491;-80
2022/11/08 08:47:54;;;;;;;15.73;10.05;;;22.10;99.90;;;;;;5055149;28;20031;-79
2022/11/08 08:50:21;;;;;;;11.15;7.40;;;22.10;99.90;;;;;;5054190;28;20535;-78
2022/11/08 08:52:47;;;;;;;12.07;6.82;;;22.10;99.90;;;;;;5072502;28;20483;-79
2022/11/08 08:55:15;;;;;;;10.77;5.75;;;22.20;99.90;;;;;;5073108;28;20035;-78
2022/11/08 08:57:45;;;;;;;12.20;5.25;;;22.30;99.90;;;;;;5053932;28;20033;-78
2022/11/08 09:00:12;;;;;;;11.68;4.90;;;22.30;99.90;;;;;;5071851;28;20151;-78
2022/11/08 09:02:38;;;;;;;9.20;4.03;;;22.10;99.90;;;;;;5071692;28;20562;-78
2022/11/08 09:05:05;;;;;;;9.80;4.78;;;22.00;99.90;;;;;;5071948;28;20059;-77
2022/11/08 09:07:31;;;;;;;13.05;7.00;;;22.00;99.90;;;;;;5072541;28;20461;-77
2022/11/08 09:09:57;;;;;;;52.88;33.95;;;22.10;99.90;;;;;;5072047;28;20028;-78
2022/11/08 09:12:23;;;;;;;14.50;10.07;;;22.20;99.90;;;;;;5072201;28;20031;-77
2022/11/08 09:14:49;;;;;;;11.43;5.55;;;22.40;99.90;;;;;;5071624;28;20032;-77
2022/11/08 09:17:15;;;;;;;11.55;5.00;;;22.60;99.90;;;;;;5071779;28;20016;-77
2022/11/08 09:19:41;;;;;;;11.30;3.55;;;22.50;99.90;;;;;;5072427;28;20153;-76
2022/11/08 09:22:07;;;;;;;7.50;2.83;;;22.40;99.90;;;;;;5072110;28;20054;-77
2022/11/08 09:24:33;;;;;;;6.63;2.60;;;22.20;99.90;;;;;;5072848;28;20104;-77
2022/11/08 09:27:02;;;;;;;5.72;3.10;;;22.20;99.90;;;;;;5072428;28;20032;-76
2022/11/08 09:29:32;;;;;;;11.23;3.10;;;22.20;99.90;;;;;;5072408;28;20020;-75
2022/11/08 09:31:59;;;;;;;8.57;2.97;;;22.20;99.90;;;;;;5070664;28;20028;-77
2022/11/08 09:34:25;;;;;;;8.48;3.03;;;22.20;99.90;;;;;;5072038;28;20024;-77
2022/11/08 09:36:53;;;;;;;9.73;2.80;;;22.10;99.90;;;;;;5071952;28;20418;-78
2022/11/08 09:39:20;;;;;;;6.13;2.00;;;22.30;99.90;;;;;;5071933;28;20079;-76
2022/11/08 09:42:05;;;;;;;7.07;1.95;;;22.50;99.90;;;;;;5071751;28;20387;-77
2022/11/08 09:45:15;;;;;;;6.43;2.08;;;22.60;99.90;;;;;;5072355;28;20063;-77
2022/11/08 09:47:44;;;;;;;4.38;1.80;;;22.70;99.90;;;;;;4970618;28;20038;-76
2022/11/08 09:50:33;;;;;;;4.65;1.45;;;22.60;99.90;;;;;;4970591;28;20590;-77
2022/11/08 09:53:37;;;;;;;3.88;1.40;;;22.50;99.90;;;;;;4971078;28;20039;-76
2022/11/08 09:56:30;;;;;;;5.10;1.88;;;22.40;99.90;;;;;;4893732;29;20150;-77
2022/11/08 09:59:16;;;;;;;4.35;1.50;;;22.30;99.90;;;;;;4894377;29;20044;-77
2022/11/08 10:01:42;;;;;;;;;;;22.20;99.90;;;;;;4894246;29;20095;-80
2022/11/08 10:04:14;;;;;;;4.82;1.50;;;22.10;99.90;;;;;;4894439;29;19936;-77
2022/11/08 10:07:18;;;;;;;6.20;1.75;;;22.10;99.90;;;;;;4894123;29;20132;-76
2022/11/08 10:10:22;;;;;;;6.13;1.92;;;22.30;99.90;;;;;;4893965;29;20024;-75
2022/11/08 10:13:00;;;;;;;7.85;1.40;;;22.40;99.90;;;;;;4888786;29;20410;-75
2022/11/08 10:15:47;;;;;;;8.48;1.50;;;22.60;99.90;;;;;;4894331;29;20137;-76
2022/11/08 10:18:41;;;;;;;4.93;1.50;;;22.60;99.90;;;;;;4893765;29;20040;-76
2022/11/08 10:21:47;;;;;;;5.65;1.50;;;22.70;99.90;;;;;;4893885;29;20119;-76
2022/11/08 10:24:32;;;;;;;6.22;1.67;;;22.80;99.90;;;;;;4916446;28;20105;-75
2022/11/08 10:26:59;;;;;;;9.75;2.10;;;22.70;99.90;;;;;;4970344;28;20129;-76
2022/11/08 10:29:43;;;;;;;4.93;1.45;;;22.70;99.90;;;;;;4969806;28;20026;-75
2022/11/08 10:32:20;;;;;;;7.38;1.42;;;22.70;99.90;;;;;;5045879;28;20059;-75
2022/11/08 10:35:01;;;;;;;6.40;1.52;;;22.70;99.90;;;;;;5070829;28;20020;-77
2022/11/08 10:37:28;;;;;;;7.32;1.80;;;22.70;99.90;;;;;;5071115;28;20052;-78
2022/11/08 10:40:18;;;;;;;3.90;1.30;;;22.80;99.90;;;;;;5070758;28;20017;-78
2022/11/08 10:42:58;;;;;;;7.97;1.67;;;22.90;99.90;;;;;;5069988;28;20028;-76
2022/11/08 10:45:24;;;;;;;8.23;1.80;;;22.80;99.90;;;;;;5052546;28;20063;-75
2022/11/08 10:47:51;;;;;;;6.85;1.60;;;22.80;99.90;;;;;;5070277;28;20029;-76
2022/11/08 10:50:18;;;;;;;;;;;22.60;99.90;;;;;;5070803;28;20457;-76
2022/11/08 10:52:55;;;;;;;7.18;1.77;;;22.60;99.90;;;;;;5071356;28;19927;-76
2022/11/08 10:55:37;;;;;;;5.93;1.58;;;22.80;99.90;;;;;;5056182;28;20024;-76
2022/11/08 10:58:23;;;;;;;5.38;1.52;;;22.80;99.90;;;;;;5074227;28;20056;-76
2022/11/08 11:01:21;;;;;;;4.20;1.70;;;22.80;99.90;;;;;;5074169;28;20154;-75
2022/11/08 11:03:49;;;;;;;3.88;1.23;;;22.80;99.90;;;;;;5074199;28;20030;-75
2022/11/08 11:06:31;;;;;;;9.15;1.42;;;22.90;99.90;;;;;;5055750;28;20037;-74
2022/11/08 11:09:00;;;;;;;5.00;1.40;;;23.00;99.90;;;;;;5074069;28;20128;-76
2022/11/08 11:11:35;;;;;;;6.03;1.20;;;23.10;99.90;;;;;;5072177;28;20055;-76
2022/11/08 11:14:20;;;;;;;10.60;1.92;;;23.10;99.90;;;;;;5073807;28;20036;-76
2022/11/08 11:17:49;;;;;;;4.60;1.23;;;23.20;99.90;;;;;;5073465;28;20102;-76
2022/11/08 11:19:54;;;;;;;4.18;1.00;;;23.00;99.90;;;;;;5062325;28;20353;-76
2022/11/08 11:22:36;;;;;;;4.95;1.08;;;22.80;99.90;;;;;;5073716;28;20409;-75
2022/11/08 11:25:23;;;;;;;5.07;1.23;;;22.90;99.90;;;;;;5056216;28;20364;-75
2022/11/08 11:27:58;;;;;;;4.50;1.10;;;22.80;99.90;;;;;;5074205;28;20028;-75
2022/11/08 11:30:30;;;;;;;4.40;1.40;;;22.70;99.90;;;;;;5073907;28;20038;-76
2022/11/08 11:33:00;;;;;;;6.43;1.30;;;22.70;99.90;;;;;;5073826;28;20090;-74
2022/11/08 11:35:46;;;;;;;4.43;1.20;;;22.80;99.90;;;;;;5072998;28;20056;-75
2022/11/08 11:38:35;;;;;;;6.63;1.20;;;22.80;99.90;;;;;;5070669;28;20040;-76
2022/11/08 11:41:08;;;;;;;6.30;1.17;;;22.90;99.90;;;;;;5073956;28;20052;-75
2022/11/08 11:43:41;;;;;;;4.80;1.50;;;23.00;99.90;;;;;;5073831;28;20031;-76
2022/11/08 11:46:22;;;;;;;7.20;1.30;;;23.10;99.90;;;;;;5055278;28;20043;-76
2022/11/08 11:48:57;;;;;;;5.40;1.27;;;23.10;99.90;;;;;;5073659;28;20036;-75
2022/11/08 11:51:26;;;;;;;5.88;1.17;;;23.00;99.90;;;;;;5073763;28;20406;-76
2022/11/08 11:53:52;;;;;;;3.83;0.98;;;22.80;99.90;;;;;;5072572;28;20078;-76
2022/11/08 11:56:54;;;;;;;5.55;1.13;;;22.70;99.90;;;;;;5073118;28;20192;-76
2022/11/08 11:59:28;;;;;;;3.00;0.98;;;22.80;99.90;;;;;;5041555;28;20024;-76
2022/11/08 12:02:25;;;;;;;5.13;1.60;;;22.80;99.90;;;;;;5072729;28;20068;-76
2022/11/08 12:05:03;;;;;;;7.40;1.25;;;22.80;99.90;;;;;;5052836;28;20029;-76
2022/11/08 12:07:31;;;;;;;4.07;1.00;;;22.90;99.90;;;;;;5072672;28;20059;-75
2022/11/08 12:10:19;;;;;;;4.45;1.23;;;22.80;99.90;;;;;;5072001;28;20025;-76
2022/11/08 12:12:48;;;;;;;4.28;1.33;;;23.00;99.90;;;;;;5072392;28;20112;-74
2022/11/08 12:15:45;;;;;;;3.92;1.00;;;23.10;99.90;;;;;;5071859;28;20098;-76
2022/11/08 12:18:30;;;;;;;2.67;0.90;;;23.10;99.90;;;;;;5073219;28;20062;-76
2022/11/08 12:21:02;;;;;;;4.97;1.02;;;23.00;99.90;;;;;;5054695;28;20194;-75
2022/11/08 12:23:50;;;;;;;3.70;0.90;;;23.20;99.90;;;;;;5072897;28;20052;-78
2022/11/08 12:26:52;;;;;;;7.47;1.52;;;23.30;99.90;;;;;;5072738;28;20036;-76
2022/11/08 12:29:23;;;;;;;4.57;1.15;;;23.20;99.90;;;;;;5072923;28;20016;-76
2022/11/08 12:32:17;;;;;;;4.32;1.15;;;23.30;99.90;;;;;;5072645;28;20480;-78
2022/11/08 12:35:03;;;;;;;6.53;1.48;;;23.30;99.90;;;;;;5072679;28;20119;-75
2022/11/08 12:37:50;;;;;;;5.95;1.63;;;23.40;99.90;;;;;;5031054;28;20132;-77
2022/11/08 12:40:36;;;;;;;6.07;1.45;;;23.50;99.90;;;;;;5020492;28;20025;-77
2022/11/08 12:43:05;;;;;;;;;;;23.50;99.90;;;;;;5030758;28;20350;-76
2022/11/08 12:45:43;;;;;;;3.08;1.00;;;23.40;99.90;;;;;;5029948;28;20285;-75
2022/11/08 12:48:15;;;;;;;6.75;1.30;;;23.40;99.90;;;;;;5030549;28;20465;-75
2022/11/08 12:50:49;;;;;;;4.32;1.17;;;23.30;99.90;;;;;;5026196;28;20445;-76
2022/11/08 12:53:48;;;;;;;6.75;1.42;;;23.30;99.90;;;;;;5018013;28;20041;-75
2022/11/08 12:56:28;;;;;;;6.32;1.27;;;23.20;99.90;;;;;;5012652;28;20060;-76
2022/11/08 12:58:55;;;;;;;6.28;1.17;;;23.20;99.90;;;;;;5014147;28;20033;-75
2022/11/08 13:01:21;;;;;;;;;;;23.20;99.90;;;;;;5030221;28;20053;-74
2022/11/08 13:04:17;;;;;;;3.88;1.40;;;23.30;99.90;;;;;;5029821;28;19916;-75
2022/11/08 13:06:52;;;;;;;27.23;2.45;;;23.30;99.90;;;;;;5013131;28;20048;-75
2022/11/08 13:09:51;;;;;;;16.02;2.35;;;23.30;99.90;;;;;;5058443;28;20024;-76
2022/11/08 13:12:43;;;;;;;9.35;1.55;;;23.30;99.90;;;;;;5055476;28;20025;-75
2022/11/08 13:15:18;;;;;;;11.32;1.13;;;23.30;99.90;;;;;;5052014;28;20021;-76
2022/11/08 13:18:06;;;;;;;11.57;1.23;;;23.10;99.90;;;;;;5052766;28;20492;-75
2022/11/08 13:20:41;;;;;;;5.97;1.10;;;23.20;99.90;;;;;;5052757;28;20053;-82
2022/11/08 13:23:15;;;;;;;4.93;1.30;;;23.00;99.90;;;;;;5034831;28;20060;-81
2022/11/08 13:25:42;;;;;;;5.82;1.52;;;22.80;99.90;;;;;;5053064;28;20037;-81
2022/11/08 13:28:37;;;;;;;7.40;1.40;;;22.70;99.90;;;;;;5052751;28;20322;-81